createdAt,value
2023-03-17T00:02:27.049Z,14.10
2023-03-17T00:04:57.641Z,15.13
2023-03-17T00:07:27.761Z,12.80
2023-03-17T00:10:00.704Z,17.58
2023-03-17T00:12:30.966Z,13.43
2023-03-17T00:15:01.319Z,14.40
2023-03-17T00:17:31.852Z,13.80
2023-03-17T00:20:02.011Z,13.52
2023-03-17T00:22:32.231Z,13.98
2023-03-17T00:25:20.990Z,13.13
2023-03-17T00:27:55.406Z,13.95
2023-03-17T00:30:29.193Z,12.52
2023-03-17T00:33:01.888Z,12.18
2023-03-17T00:35:33.537Z,13.07
2023-03-17T00:38:05.360Z,11.73
2023-03-17T00:40:41.335Z,16.70
2023-03-17T00:43:11.836Z,13.40
2023-03-17T00:45:43.017Z,13.23
2023-03-17T00:48:18.068Z,12.90
2023-03-17T00:50:49.868Z,13.75
2023-03-17T00:53:21.922Z,14.40
2023-03-17T00:55:55.092Z,12.38
2023-03-17T00:58:29.935Z,12.68
2023-03-17T01:01:01.844Z,13.95
2023-03-17T01:03:33.203Z,13.52
2023-03-17T01:06:04.899Z,14.13
2023-03-17T01:08:35.331Z,16.73
2023-03-17T01:11:08.810Z,14.45
2023-03-17T01:13:40.803Z,13.18
2023-03-17T01:16:13.139Z,14.52
2023-03-17T01:18:43.782Z,17.15
2023-03-17T01:21:14.187Z,21.45
2023-03-17T01:23:44.740Z,30.05
2023-03-17T01:26:17.611Z,19.65
2023-03-17T01:28:50.017Z,16.42
2023-03-17T01:31:24.086Z,14.85
2023-03-17T01:33:57.909Z,14.18
2023-03-17T01:36:30.365Z,15.35
2023-03-17T01:39:03.476Z,16.50
2023-03-17T01:41:42.415Z,16.33
2023-03-17T01:44:19.752Z,15.25
2023-03-17T01:46:50.460Z,16.13
2023-03-17T01:49:31.998Z,14.80
2023-03-17T01:52:10.546Z,16.60
2023-03-17T01:54:48.342Z,15.77
2023-03-17T01:57:26.920Z,14.25
2023-03-17T02:00:01.794Z,14.45
2023-03-17T02:02:35.250Z,13.18
2023-03-17T02:05:07.123Z,13.00
2023-03-17T02:07:37.962Z,13.45
2023-03-17T02:10:09.925Z,12.75
2023-03-17T02:12:48.925Z,12.98
2023-03-17T02:15:20.126Z,12.63
2023-03-17T02:17:50.659Z,12.90
2023-03-17T02:20:50.955Z,15.27
2023-03-17T02:23:25.241Z,13.43
2023-03-17T02:25:57.060Z,13.00
2023-03-17T02:28:33.080Z,13.00
2023-03-17T02:31:03.937Z,13.57
2023-03-17T02:33:34.185Z,11.98
2023-03-17T02:36:04.273Z,12.07
2023-03-17T02:38:37.050Z,12.38
2023-03-17T02:41:07.520Z,11.88
2023-03-17T02:43:37.677Z,11.57
2023-03-17T02:46:08.365Z,11.60
2023-03-17T02:48:39.937Z,11.52
2023-03-17T02:51:10.474Z,11.43
2023-03-17T02:53:43.213Z,11.65
2023-03-17T02:56:13.297Z,10.88
2023-03-17T02:58:43.368Z,10.82
2023-03-17T03:01:13.647Z,12.02
2023-03-17T03:03:43.906Z,13.13
2023-03-17T03:06:14.008Z,11.88
2023-03-17T03:08:47.142Z,11.75
2023-03-17T03:11:17.187Z,11.30
2023-03-17T03:13:47.804Z,10.45
2023-03-17T03:16:18.214Z,11.13
2023-03-17T03:18:48.340Z,10.35
2023-03-17T03:21:18.763Z,11.23
2023-03-17T03:23:51.644Z,12.55
2023-03-17T03:26:21.775Z,12.27
2023-03-17T03:28:52.162Z,12.63
2023-03-17T03:31:23.030Z,11.57
2023-03-17T03:33:53.386Z,12.65
2023-03-17T03:36:23.682Z,12.63
2023-03-17T03:38:56.729Z,12.80
2023-03-17T03:41:27.413Z,12.43
2023-03-17T03:43:57.569Z,11.63
2023-03-17T03:46:27.683Z,12.32
2023-03-17T03:48:58.158Z,12.73
2023-03-17T03:51:28.398Z,13.90
2023-03-17T03:54:01.461Z,15.35
2023-03-17T03:56:31.599Z,12.60
2023-03-17T03:59:01.805Z,12.48
2023-03-17T04:01:31.968Z,14.07
2023-03-17T04:04:02.047Z,12.25
2023-03-17T04:06:32.113Z,14.82
2023-03-17T04:09:04.976Z,14.80
2023-03-17T04:11:35.059Z,14.20
2023-03-17T04:14:06.565Z,13.90
2023-03-17T04:16:36.676Z,14.85
2023-03-17T04:19:06.915Z,13.43
2023-03-17T04:21:37.121Z,14.38
2023-03-17T04:24:11.123Z,13.30
2023-03-17T04:26:41.442Z,13.68
2023-03-17T04:29:15.771Z,14.45
2023-03-17T04:31:46.018Z,13.02
2023-03-17T04:34:18.861Z,14.45
2023-03-17T04:36:50.229Z,15.00
2023-03-17T04:39:23.847Z,14.40
2023-03-17T04:41:53.988Z,16.20
2023-03-17T04:44:24.096Z,14.80
2023-03-17T04:46:54.487Z,16.23
2023-03-17T04:49:24.685Z,18.27
2023-03-17T04:51:55.189Z,19.00
2023-03-17T04:54:27.876Z,19.08
2023-03-17T04:56:58.106Z,18.60
2023-03-17T04:59:28.171Z,17.70
2023-03-17T05:01:58.281Z,17.15
2023-03-17T05:04:32.014Z,16.60
2023-03-17T05:07:03.029Z,17.92
2023-03-17T05:09:35.701Z,18.08
2023-03-17T05:12:05.912Z,18.45
2023-03-17T05:14:36.026Z,18.58
2023-03-17T05:17:06.158Z,17.95
2023-03-17T05:19:36.294Z,18.92
2023-03-17T05:22:06.588Z,19.33
2023-03-17T05:24:39.594Z,18.13
2023-03-17T05:27:09.782Z,17.70
2023-03-17T05:29:39.973Z,18.67
2023-03-17T05:32:10.419Z,16.13
2023-03-17T05:34:40.490Z,16.67
2023-03-17T05:37:10.668Z,16.98
2023-03-17T05:39:43.834Z,16.88
2023-03-17T05:42:14.004Z,17.23
2023-03-17T05:44:44.718Z,17.08
2023-03-17T05:47:15.210Z,16.52
2023-03-17T05:49:45.338Z,17.15
2023-03-17T05:52:15.598Z,18.58
2023-03-17T05:54:49.242Z,17.83
2023-03-17T05:57:19.377Z,17.90
2023-03-17T05:59:50.918Z,17.00
2023-03-17T06:02:21.307Z,18.45
2023-03-17T06:04:52.304Z,19.65
2023-03-17T06:07:22.495Z,18.08
2023-03-17T06:09:56.026Z,16.00
2023-03-17T06:12:26.373Z,18.08
2023-03-17T06:14:56.436Z,14.90
2023-03-17T06:17:26.589Z,14.68
2023-03-17T06:19:56.963Z,14.77
2023-03-17T06:22:27.485Z,13.07
2023-03-17T06:25:01.237Z,14.38
2023-03-17T06:30:01.759Z,12.52
2023-03-17T06:32:31.940Z,10.65
2023-03-17T06:35:02.097Z,10.65
2023-03-17T06:37:32.486Z,11.90
2023-03-17T06:40:06.002Z,11.32
2023-03-17T06:42:36.010Z,11.68
2023-03-17T06:45:06.731Z,11.02
2023-03-17T06:47:37.444Z,11.63
2023-03-17T06:50:09.916Z,11.85
2023-03-17T06:52:41.014Z,10.45
2023-03-17T06:55:14.092Z,11.23
2023-03-17T06:57:44.260Z,12.13
2023-03-17T07:00:16.223Z,11.70
2023-03-17T07:02:46.401Z,9.38
2023-03-17T07:05:19.046Z,10.80
2023-03-17T07:07:49.472Z,11.40
2023-03-17T07:10:23.294Z,13.45
2023-03-17T07:15:25.334Z,11.05
2023-03-17T07:17:55.851Z,11.25
2023-03-17T07:20:26.119Z,10.57
2023-03-17T07:22:56.338Z,11.23
2023-03-17T07:25:29.626Z,10.82
2023-03-17T07:28:01.163Z,10.68
2023-03-17T07:30:32.146Z,11.00
2023-03-17T07:33:02.419Z,10.52
2023-03-17T07:35:34.097Z,9.05
2023-03-17T07:38:04.639Z,9.52
2023-03-17T07:40:37.394Z,8.63
2023-03-17T07:43:08.444Z,8.98
2023-03-17T07:45:39.155Z,8.15
2023-03-17T07:48:10.966Z,10.30
2023-03-17T07:50:41.596Z,9.93
2023-03-17T07:53:12.034Z,9.48
2023-03-17T07:55:44.809Z,10.25
2023-03-17T07:58:15.981Z,8.52
2023-03-17T08:00:46.809Z,8.15
2023-03-17T08:03:17.077Z,8.88
2023-03-17T08:05:49.268Z,8.02
2023-03-17T08:08:21.509Z,7.07
2023-03-17T08:10:55.078Z,8.57
2023-03-17T08:13:25.212Z,7.25
2023-03-17T08:15:56.052Z,7.40
2023-03-17T08:18:26.230Z,6.60
2023-03-17T08:20:56.339Z,6.78
2023-03-17T08:23:26.771Z,6.68
2023-03-17T08:26:03.342Z,7.72
2023-03-17T08:28:34.689Z,5.80
2023-03-17T08:31:13.109Z,7.45
2023-03-17T08:33:43.702Z,5.68
2023-03-17T08:36:14.586Z,6.00
2023-03-17T08:38:45.312Z,5.20
2023-03-17T08:41:20.342Z,6.25
2023-03-17T08:43:50.996Z,5.35
2023-03-17T08:46:23.118Z,4.90
2023-03-17T08:48:56.123Z,4.63
2023-03-17T08:51:27.253Z,4.77
2023-03-17T08:53:58.885Z,5.35
2023-03-17T08:56:31.949Z,5.35
2023-03-17T08:59:02.188Z,4.73
2023-03-17T09:01:32.616Z,4.90
2023-03-17T09:04:02.966Z,4.90
2023-03-17T09:06:33.121Z,6.00
2023-03-17T09:09:03.181Z,5.82
2023-03-17T09:11:36.005Z,4.88
2023-03-17T09:14:06.315Z,3.88
2023-03-17T09:16:37.273Z,4.10
2023-03-17T09:19:07.565Z,4.03
2023-03-17T09:21:37.915Z,5.00
2023-03-17T09:24:08.672Z,4.22
2023-03-17T09:26:41.450Z,4.30
2023-03-17T09:29:11.513Z,4.20
2023-03-17T09:31:43.224Z,4.47
2023-03-17T09:34:14.054Z,4.72
2023-03-17T09:36:44.170Z,4.13
2023-03-17T09:39:14.387Z,5.20
2023-03-17T09:42:14.986Z,4.72
2023-03-17T09:45:01.845Z,4.10
2023-03-17T09:47:52.089Z,4.25
2023-03-17T09:50:27.716Z,5.00
2023-03-17T09:53:02.648Z,4.65
2023-03-17T09:55:37.232Z,5.00
2023-03-17T09:58:14.599Z,5.18
2023-03-17T10:00:45.265Z,5.30
2023-03-17T10:03:15.810Z,4.30
2023-03-17T10:05:45.951Z,3.72
2023-03-17T10:08:30.636Z,4.13
2023-03-17T10:11:09.611Z,4.93
2023-03-17T10:13:55.023Z,4.47
2023-03-17T10:16:30.611Z,4.50
2023-03-17T10:19:07.321Z,4.78
2023-03-17T10:21:42.882Z,4.78
2023-03-17T10:24:14.472Z,6.05
2023-03-17T10:26:49.274Z,6.43
2023-03-17T10:29:24.421Z,4.70
2023-03-17T10:31:58.261Z,4.38
2023-03-17T10:34:30.995Z,4.22
2023-03-17T10:37:04.988Z,4.90
2023-03-17T10:39:35.074Z,3.85
2023-03-17T10:42:14.115Z,4.43
2023-03-17T10:44:53.718Z,3.75
2023-03-17T10:47:31.987Z,4.40
2023-03-17T10:50:07.604Z,4.32
2023-03-17T10:52:42.568Z,4.70
2023-03-17T10:55:17.587Z,4.55
2023-03-17T10:57:55.578Z,4.70
2023-03-17T11:00:33.938Z,4.32
2023-03-17T11:03:13.849Z,4.15
2023-03-17T11:05:44.285Z,5.43
2023-03-17T11:08:21.970Z,5.93
2023-03-17T11:10:57.942Z,4.80
2023-03-17T11:13:33.114Z,5.57
2023-03-17T11:16:13.807Z,5.30
2023-03-17T11:18:44.061Z,4.10
2023-03-17T11:21:19.441Z,3.92
2023-03-17T11:23:56.931Z,3.88
2023-03-17T11:27:01.338Z,5.25
2023-03-17T11:29:43.307Z,4.82
2023-03-17T11:32:28.728Z,7.90
2023-03-17T11:35:18.906Z,4.10
2023-03-17T11:38:22.411Z,3.83
2023-03-17T11:41:10.948Z,4.55
2023-03-17T11:43:50.853Z,4.63
2023-03-17T11:46:29.058Z,4.90
2023-03-17T11:49:13.177Z,4.20
2023-03-17T11:54:28.958Z,4.88
2023-03-17T11:57:03.095Z,4.75
2023-03-17T11:59:40.907Z,4.93
2023-03-17T12:02:23.540Z,5.80
2023-03-17T12:04:59.844Z,5.47
2023-03-17T12:07:36.732Z,5.25
2023-03-17T12:10:18.699Z,5.43
2023-03-17T12:12:53.602Z,4.63
2023-03-17T12:15:32.442Z,4.40
2023-03-17T12:18:08.156Z,5.88
2023-03-17T12:20:49.855Z,9.35
2023-03-17T12:23:30.206Z,6.55
2023-03-17T12:26:05.341Z,6.07
2023-03-17T12:28:40.302Z,4.80
2023-03-17T12:31:15.264Z,5.90
2023-03-17T12:33:52.898Z,5.15
2023-03-17T12:36:26.102Z,5.47
2023-03-17T12:39:02.016Z,5.60
2023-03-17T12:41:49.211Z,5.63
2023-03-17T12:44:36.197Z,4.75
2023-03-17T12:47:22.999Z,5.63
2023-03-17T12:50:17.072Z,7.28
2023-03-17T12:53:17.175Z,5.07
2023-03-17T12:55:49.988Z,5.65
2023-03-17T12:58:31.552Z,4.57
2023-03-17T13:01:17.566Z,5.53
2023-03-17T13:04:04.291Z,8.80
2023-03-17T13:06:42.736Z,7.15
2023-03-17T13:09:49.221Z,9.02
2023-03-17T13:13:01.142Z,5.93
2023-03-17T13:15:48.429Z,5.75
2023-03-17T13:18:33.148Z,5.53
2023-03-17T13:21:16.380Z,5.20
2023-03-17T13:23:49.040Z,5.18
2023-03-17T13:26:23.801Z,4.78
2023-03-17T13:28:54.925Z,6.80
2023-03-17T13:31:39.984Z,5.45
2023-03-17T13:34:17.931Z,5.78
2023-03-17T13:36:58.131Z,4.22
2023-03-17T13:39:57.960Z,5.55
2023-03-17T13:43:09.613Z,6.30
2023-03-17T13:45:41.775Z,7.38
2023-03-17T13:48:33.847Z,14.35
2023-03-17T13:51:06.611Z,7.35
2023-03-17T13:53:41.446Z,6.25
2023-03-17T13:56:19.817Z,4.88
2023-03-17T13:59:08.111Z,6.45
2023-03-17T14:01:44.095Z,6.85
2023-03-17T14:04:25.021Z,10.00
2023-03-17T14:06:59.749Z,6.32
2023-03-17T14:09:39.721Z,6.55
2023-03-17T14:12:17.675Z,6.55
2023-03-17T14:14:55.981Z,6.50
2023-03-17T14:17:31.066Z,7.47
2023-03-17T14:20:08.646Z,5.85
2023-03-17T14:22:47.194Z,6.15
2023-03-17T14:25:20.153Z,5.70
2023-03-17T14:27:53.905Z,4.85
2023-03-17T14:33:04.799Z,4.78
2023-03-17T14:35:36.192Z,7.13
2023-03-17T14:38:06.700Z,7.90
2023-03-17T14:40:37.156Z,6.50
2023-03-17T14:43:07.466Z,7.25
2023-03-17T14:45:52.630Z,12.13
2023-03-17T14:48:28.798Z,5.05
2023-03-17T14:51:05.453Z,4.88
2023-03-17T14:53:37.409Z,5.13
2023-03-17T14:56:08.056Z,5.18
2023-03-17T14:58:43.572Z,5.25
2023-03-17T15:01:20.265Z,5.80
2023-03-17T15:03:59.312Z,6.13
2023-03-17T15:06:31.292Z,7.22
2023-03-17T15:09:04.154Z,6.88
2023-03-17T15:11:43.073Z,6.80
2023-03-17T15:14:21.346Z,5.45
2023-03-17T15:16:57.676Z,5.90
2023-03-17T15:19:31.382Z,9.75
2023-03-17T15:24:44.234Z,4.70
2023-03-17T15:27:18.411Z,4.45
2023-03-17T15:29:51.780Z,5.32
2023-03-17T15:32:26.237Z,20.50
2023-03-17T15:34:58.055Z,6.35
2023-03-17T15:37:30.616Z,13.40
2023-03-17T15:40:01.655Z,4.70
2023-03-17T15:42:34.099Z,4.97
2023-03-17T15:45:04.572Z,5.03
2023-03-17T15:47:41.846Z,5.00
2023-03-17T15:50:19.534Z,4.40
2023-03-17T15:52:49.892Z,5.47
2023-03-17T15:55:23.769Z,4.22
2023-03-17T16:00:29.896Z,4.50
2023-03-17T16:03:07.351Z,4.32
2023-03-17T16:05:38.936Z,3.58
2023-03-17T16:08:09.547Z,3.50
2023-03-17T16:10:39.660Z,3.88
2023-03-17T16:13:09.767Z,4.53
2023-03-17T16:15:43.030Z,4.30
2023-03-17T16:18:21.276Z,4.65
2023-03-17T16:20:53.533Z,4.20
2023-03-17T16:23:26.437Z,4.15
2023-03-17T16:26:11.822Z,4.13
2023-03-17T16:28:44.746Z,3.92
2023-03-17T16:31:25.180Z,4.55
2023-03-17T16:33:58.786Z,3.90
2023-03-17T16:36:29.209Z,4.18
2023-03-17T16:39:00.173Z,4.07
2023-03-17T16:41:30.818Z,4.07
2023-03-17T16:44:03.527Z,4.18
2023-03-17T16:46:37.602Z,3.88
2023-03-17T16:49:10.589Z,3.72
2023-03-17T16:51:40.792Z,3.60
2023-03-17T16:54:13.740Z,4.45
2023-03-17T16:56:45.091Z,4.73
2023-03-17T16:59:21.797Z,4.00
2023-03-17T17:01:54.985Z,4.43
2023-03-17T17:04:27.806Z,4.75
2023-03-17T17:06:57.974Z,4.93
2023-03-17T17:09:28.414Z,4.68
2023-03-17T17:11:58.667Z,4.93
2023-03-17T17:14:28.795Z,6.72
2023-03-17T17:16:59.161Z,6.00
2023-03-17T17:19:32.164Z,6.38
2023-03-17T17:22:02.304Z,5.17
2023-03-17T17:24:32.420Z,5.93
2023-03-17T17:27:02.549Z,5.95
2023-03-17T17:29:32.655Z,6.35
2023-03-17T17:32:02.847Z,5.80
2023-03-17T17:34:35.708Z,6.97
2023-03-17T17:37:09.059Z,7.63
2023-03-17T17:39:39.139Z,6.63
2023-03-17T17:42:09.781Z,6.38
2023-03-17T17:44:40.038Z,5.85
2023-03-17T17:47:10.578Z,5.57
2023-03-17T17:49:43.395Z,5.10
2023-03-17T17:52:13.868Z,4.70
2023-03-17T17:54:44.060Z,5.07
2023-03-17T17:57:14.795Z,5.57
2023-03-17T17:59:44.915Z,5.38
2023-03-17T18:02:15.934Z,5.35
2023-03-17T18:04:49.317Z,5.70
2023-03-17T18:07:19.435Z,6.13
2023-03-17T18:09:49.477Z,5.03
2023-03-17T18:12:19.631Z,5.45
2023-03-17T18:14:49.765Z,5.40
2023-03-17T18:17:21.992Z,4.90
2023-03-17T18:19:55.744Z,5.40
2023-03-17T18:22:25.823Z,4.80
2023-03-17T18:24:56.722Z,5.32
2023-03-17T18:27:26.818Z,5.15
2023-03-17T18:29:58.579Z,4.63
2023-03-17T18:32:30.759Z,5.57
2023-03-17T18:35:08.166Z,5.88
2023-03-17T18:37:39.689Z,7.07
2023-03-17T18:40:17.994Z,6.95
2023-03-17T18:42:49.124Z,6.47
2023-03-17T18:45:19.615Z,7.50
2023-03-17T18:47:49.864Z,7.50
2023-03-17T18:50:24.994Z,8.85
2023-03-17T18:52:56.046Z,8.98
2023-03-17T18:55:26.186Z,9.13
2023-03-17T18:57:57.380Z,8.98
2023-03-17T19:00:28.028Z,9.18
2023-03-17T19:02:58.332Z,8.95
2023-03-17T19:05:34.085Z,8.35
2023-03-17T19:08:04.340Z,9.57
2023-03-17T19:10:34.612Z,8.73
2023-03-17T19:13:05.420Z,9.60
2023-03-17T19:15:38.810Z,7.60
2023-03-17T19:18:09.798Z,7.28
2023-03-17T19:20:42.437Z,7.13
2023-03-17T19:23:12.668Z,6.72
2023-03-17T19:25:42.780Z,8.25
2023-03-17T19:28:12.855Z,7.28
2023-03-17T19:30:45.441Z,7.63
2023-03-17T19:33:16.209Z,8.18
2023-03-17T19:35:49.424Z,7.18
2023-03-17T19:38:19.972Z,7.47
2023-03-17T19:40:50.151Z,7.40
2023-03-17T19:43:39.034Z,7.18
2023-03-17T19:46:11.301Z,7.43
2023-03-17T19:48:42.099Z,8.13
2023-03-17T19:51:14.919Z,8.48
2023-03-17T19:53:45.003Z,7.15
2023-03-17T19:56:15.491Z,7.55
2023-03-17T19:58:46.111Z,6.90
2023-03-17T20:01:17.116Z,7.57
2023-03-17T20:03:47.294Z,6.70
2023-03-17T20:06:20.611Z,6.45
2023-03-17T20:08:50.798Z,7.95
2023-03-17T20:11:21.112Z,6.85
2023-03-17T20:13:51.284Z,6.25
2023-03-17T20:16:21.416Z,6.47
2023-03-17T20:18:51.495Z,6.30
2023-03-17T20:21:24.425Z,6.40
2023-03-17T20:23:54.829Z,6.35
2023-03-17T20:26:24.968Z,6.88
2023-03-17T20:28:55.797Z,6.22
2023-03-17T20:31:26.167Z,6.45
2023-03-17T20:33:56.465Z,6.22
2023-03-17T20:36:29.287Z,6.65
2023-03-17T20:38:59.430Z,5.70
2023-03-17T20:41:31.734Z,6.28
2023-03-17T20:44:01.830Z,5.90
2023-03-17T20:46:33.919Z,6.07
2023-03-17T20:49:05.753Z,5.75
2023-03-17T20:51:39.492Z,7.15
2023-03-17T20:54:11.137Z,5.25
2023-03-17T20:56:41.447Z,6.68
2023-03-17T20:59:13.567Z,6.38
2023-03-17T21:01:43.753Z,5.85
2023-03-17T21:04:17.874Z,7.28
2023-03-17T21:06:51.034Z,5.70
2023-03-17T21:09:21.752Z,5.80
2023-03-17T21:11:52.077Z,5.53
2023-03-17T21:14:23.274Z,6.05
2023-03-17T21:16:53.605Z,5.97
2023-03-17T21:19:23.892Z,6.60
2023-03-17T21:21:56.819Z,7.28
2023-03-17T21:24:31.359Z,6.00
2023-03-17T21:27:04.719Z,6.80
2023-03-17T21:29:38.005Z,6.68
2023-03-17T21:32:09.032Z,7.25
2023-03-17T21:34:39.942Z,6.78
2023-03-17T21:37:13.110Z,7.18
2023-03-17T21:39:43.171Z,7.07
2023-03-17T21:42:13.741Z,5.95
2023-03-17T21:44:45.879Z,5.93
2023-03-17T21:47:16.678Z,6.88
2023-03-17T21:49:47.240Z,6.43
2023-03-17T21:52:21.017Z,6.95
2023-03-17T21:54:51.346Z,6.57
2023-03-17T21:57:21.494Z,6.68
2023-03-17T21:59:51.599Z,6.85
2023-03-17T22:02:22.042Z,6.20
2023-03-17T22:04:52.781Z,6.55
2023-03-17T22:07:26.540Z,5.75
2023-03-17T22:09:57.950Z,6.28
2023-03-17T22:12:29.210Z,5.75
2023-03-17T22:15:00.397Z,5.63
2023-03-17T22:17:30.489Z,4.95
2023-03-17T22:20:00.730Z,5.80
2023-03-17T22:22:34.626Z,6.22
2023-03-17T22:27:36.452Z,6.13
2023-03-17T22:30:07.174Z,5.95
2023-03-17T22:32:37.283Z,5.35
2023-03-17T22:35:08.451Z,5.95
2023-03-17T22:37:41.585Z,6.18
2023-03-17T22:40:13.310Z,5.32
2023-03-17T22:42:43.497Z,6.05
2023-03-17T22:45:14.838Z,5.90
2023-03-17T22:47:45.074Z,5.70
2023-03-17T22:50:15.228Z,6.82
2023-03-17T22:52:48.204Z,6.05
2023-03-17T22:55:18.511Z,7.05
2023-03-17T22:57:48.668Z,8.07
2023-03-17T23:00:20.021Z,7.85
2023-03-17T23:02:50.104Z,7.85
2023-03-17T23:05:20.502Z,9.48
2023-03-17T23:07:53.541Z,8.68
2023-03-17T23:10:25.022Z,9.37
2023-03-17T23:12:55.368Z,9.55
2023-03-17T23:15:26.700Z,9.70
2023-03-17T23:17:56.900Z,10.20
2023-03-17T23:20:27.310Z,10.20
2023-03-17T23:23:00.156Z,10.05
2023-03-17T23:25:30.267Z,10.00
2023-03-17T23:28:00.360Z,11.10
2023-03-17T23:30:31.370Z,11.90
2023-03-17T23:33:01.800Z,10.35
2023-03-17T23:35:32.031Z,10.82
2023-03-17T23:38:05.297Z,10.48
2023-03-17T23:40:36.661Z,9.95
2023-03-17T23:43:08.113Z,10.93
2023-03-17T23:45:38.408Z,10.52
2023-03-17T23:48:08.793Z,9.32
2023-03-17T23:50:39.439Z,10.43
2023-03-17T23:53:12.427Z,11.00
2023-03-17T23:55:43.050Z,10.33
2023-03-17T23:58:13.880Z,11.00
